sensor_id;sensor_type;location;lat;lon;timestamp;P1;durP1;ratioP1;P2;durP2;ratioP2
62028;SDS011;50157;42.698;23.318;2023-02-13T00:02:22;40.10;;;26.17;;
62028;SDS011;50157;42.698;23.318;2023-02-13T00:04:49;38.92;;;24.92;;
62028;SDS011;50157;42.698;23.318;2023-02-13T00:07:16;39.63;;;24.75;;
62028;SDS011;50157;42.698;23.318;2023-02-13T00:09:44;38.78;;;24.48;;
62028;SDS011;50157;42.698;23.318;2023-02-13T00:12:11;40.70;;;25.15;;
62028;SDS011;50157;42.698;23.318;2023-02-13T00:14:38;39.35;;;24.17;;
62028;SDS011;50157;42.698;23.318;2023-02-13T00:17:05;38.47;;;24.00;;
62028;SDS011;50157;42.698;23.318;2023-02-13T00:19:32;38.63;;;24.38;;
62028;SDS011;50157;42.698;23.318;2023-02-13T00:21:59;41.85;;;24.73;;
62028;SDS011;50157;42.698;23.318;2023-02-13T00:24:25;37.15;;;23.83;;
62028;SDS011;50157;42.698;23.318;2023-02-13T00:26:54;38.25;;;23.63;;
62028;SDS011;50157;42.698;23.318;2023-02-13T00:29:20;38.25;;;23.80;;
62028;SDS011;50157;42.698;23.318;2023-02-13T00:31:47;36.17;;;23.17;;
62028;SDS011;50157;42.698;23.318;2023-02-13T00:34:14;38.78;;;23.88;;
62028;SDS011;50157;42.698;23.318;2023-02-13T00:36:41;34.28;;;22.05;;
62028;SDS011;50157;42.698;23.318;2023-02-13T00:39:07;36.92;;;23.23;;
62028;SDS011;50157;42.698;23.318;2023-02-13T00:41:36;35.45;;;22.90;;
62028;SDS011;50157;42.698;23.318;2023-02-13T00:44:05;35.88;;;22.08;;
62028;SDS011;50157;42.698;23.318;2023-02-13T00:46:31;37.72;;;24.13;;
62028;SDS011;50157;42.698;23.318;2023-02-13T00:48:58;34.10;;;22.45;;
62028;SDS011;50157;42.698;23.318;2023-02-13T00:51:25;37.13;;;23.13;;
62028;SDS011;50157;42.698;23.318;2023-02-13T00:53:52;38.90;;;23.20;;
62028;SDS011;50157;42.698;23.318;2023-02-13T00:56:19;35.65;;;22.48;;
62028;SDS011;50157;42.698;23.318;2023-02-13T00:58:45;37.25;;;22.42;;
62028;SDS011;50157;42.698;23.318;2023-02-13T01:01:14;37.33;;;22.98;;
62028;SDS011;50157;42.698;23.318;2023-02-13T01:03:41;36.08;;;22.83;;
62028;SDS011;50157;42.698;23.318;2023-02-13T01:06:08;37.75;;;23.58;;
62028;SDS011;50157;42.698;23.318;2023-02-13T01:08:37;35.97;;;22.33;;
62028;SDS011;50157;42.698;23.318;2023-02-13T01:11:04;37.17;;;23.60;;
62028;SDS011;50157;42.698;23.318;2023-02-13T01:13:31;38.03;;;23.08;;
62028;SDS011;50157;42.698;23.318;2023-02-13T01:15:59;36.75;;;22.70;;
62028;SDS011;50157;42.698;23.318;2023-02-13T01:18:27;37.00;;;23.23;;
62028;SDS011;50157;42.698;23.318;2023-02-13T01:20:55;37.30;;;23.67;;
62028;SDS011;50157;42.698;23.318;2023-02-13T01:23:23;36.08;;;22.80;;
62028;SDS011;50157;42.698;23.318;2023-02-13T01:25:50;37.05;;;23.15;;
62028;SDS011;50157;42.698;23.318;2023-02-13T01:28:16;34.00;;;22.55;;
62028;SDS011;50157;42.698;23.318;2023-02-13T01:30:43;36.20;;;23.48;;
62028;SDS011;50157;42.698;23.318;2023-02-13T01:33:10;35.33;;;22.15;;
62028;SDS011;50157;42.698;23.318;2023-02-13T01:35:39;35.72;;;21.67;;
62028;SDS011;50157;42.698;23.318;2023-02-13T01:38:06;37.80;;;23.48;;
62028;SDS011;50157;42.698;23.318;2023-02-13T01:40:33;33.38;;;21.67;;
62028;SDS011;50157;42.698;23.318;2023-02-13T01:43:00;37.80;;;23.45;;
62028;SDS011;50157;42.698;23.318;2023-02-13T01:45:27;35.42;;;21.88;;
62028;SDS011;50157;42.698;23.318;2023-02-13T01:47:55;35.92;;;22.65;;
62028;SDS011;50157;42.698;23.318;2023-02-13T01:50:27;37.22;;;22.77;;
62028;SDS011;50157;42.698;23.318;2023-02-13T01:53:00;34.90;;;22.13;;
62028;SDS011;50157;42.698;23.318;2023-02-13T01:55:32;38.47;;;22.55;;
62028;SDS011;50157;42.698;23.318;2023-02-13T01:58:01;38.30;;;23.83;;
62028;SDS011;50157;42.698;23.318;2023-02-13T02:00:33;37.08;;;23.02;;
62028;SDS011;50157;42.698;23.318;2023-02-13T02:03:03;37.70;;;23.17;;
62028;SDS011;50157;42.698;23.318;2023-02-13T02:05:34;36.70;;;22.77;;
62028;SDS011;50157;42.698;23.318;2023-02-13T02:08:03;35.08;;;22.33;;
62028;SDS011;50157;42.698;23.318;2023-02-13T02:10:34;35.40;;;22.30;;
62028;SDS011;50157;42.698;23.318;2023-02-13T02:13:04;37.42;;;23.17;;
62028;SDS011;50157;42.698;23.318;2023-02-13T02:15:33;37.15;;;22.95;;
62028;SDS011;50157;42.698;23.318;2023-02-13T02:18:00;37.97;;;22.55;;
62028;SDS011;50157;42.698;23.318;2023-02-13T02:20:31;35.97;;;22.15;;
62028;SDS011;50157;42.698;23.318;2023-02-13T02:23:32;40.67;;;23.02;;
62028;SDS011;50157;42.698;23.318;2023-02-13T02:29:20;37.55;;;23.25;;
62028;SDS011;50157;42.698;23.318;2023-02-13T02:32:08;37.55;;;22.23;;
62028;SDS011;50157;42.698;23.318;2023-02-13T02:34:47;36.17;;;21.55;;
62028;SDS011;50157;42.698;23.318;2023-02-13T02:37:23;37.92;;;22.98;;
62028;SDS011;50157;42.698;23.318;2023-02-13T02:40:04;38.47;;;22.23;;
62028;SDS011;50157;42.698;23.318;2023-02-13T02:42:47;36.72;;;22.95;;
62028;SDS011;50157;42.698;23.318;2023-02-13T02:45:24;37.15;;;24.15;;
62028;SDS011;50157;42.698;23.318;2023-02-13T02:48:02;38.25;;;23.25;;
62028;SDS011;50157;42.698;23.318;2023-02-13T02:50:52;36.63;;;22.17;;
62028;SDS011;50157;42.698;23.318;2023-02-13T02:53:29;34.65;;;21.52;;
62028;SDS011;50157;42.698;23.318;2023-02-13T02:56:04;36.33;;;22.30;;
62028;SDS011;50157;42.698;23.318;2023-02-13T02:58:37;37.47;;;22.45;;
62028;SDS011;50157;42.698;23.318;2023-02-13T03:01:25;36.70;;;21.27;;
62028;SDS011;50157;42.698;23.318;2023-02-13T03:04:15;36.55;;;22.30;;
62028;SDS011;50157;42.698;23.318;2023-02-13T03:07:03;37.65;;;23.27;;
62028;SDS011;50157;42.698;23.318;2023-02-13T03:09:35;38.75;;;23.52;;
62028;SDS011;50157;42.698;23.318;2023-02-13T03:12:23;37.80;;;22.38;;
62028;SDS011;50157;42.698;23.318;2023-02-13T03:15:12;37.85;;;23.88;;
62028;SDS011;50157;42.698;23.318;2023-02-13T03:17:39;34.20;;;21.02;;
62028;SDS011;50157;42.698;23.318;2023-02-13T03:20:29;38.00;;;22.05;;
62028;SDS011;50157;42.698;23.318;2023-02-13T03:23:22;36.00;;;22.63;;
62028;SDS011;50157;42.698;23.318;2023-02-13T03:26:05;34.03;;;21.98;;
62028;SDS011;50157;42.698;23.318;2023-02-13T03:28:43;35.42;;;22.33;;
62028;SDS011;50157;42.698;23.318;2023-02-13T03:31:37;40.13;;;23.52;;
62028;SDS011;50157;42.698;23.318;2023-02-13T03:34:09;35.13;;;21.30;;
62028;SDS011;50157;42.698;23.318;2023-02-13T03:36:45;32.63;;;21.52;;
62028;SDS011;50157;42.698;23.318;2023-02-13T03:39:44;33.35;;;21.27;;
62028;SDS011;50157;42.698;23.318;2023-02-13T03:42:20;36.50;;;22.90;;
62028;SDS011;50157;42.698;23.318;2023-02-13T03:44:53;35.42;;;21.90;;
62028;SDS011;50157;42.698;23.318;2023-02-13T03:47:41;35.40;;;21.42;;
62028;SDS011;50157;42.698;23.318;2023-02-13T03:50:10;34.97;;;22.00;;
62028;SDS011;50157;42.698;23.318;2023-02-13T03:52:41;35.40;;;22.70;;
62028;SDS011;50157;42.698;23.318;2023-02-13T03:55:13;36.20;;;21.52;;
62028;SDS011;50157;42.698;23.318;2023-02-13T03:58:01;34.13;;;21.40;;
62028;SDS011;50157;42.698;23.318;2023-02-13T04:00:49;35.72;;;22.15;;
62028;SDS011;50157;42.698;23.318;2023-02-13T04:03:21;39.72;;;22.38;;
62028;SDS011;50157;42.698;23.318;2023-02-13T04:05:53;33.83;;;20.63;;
62028;SDS011;50157;42.698;23.318;2023-02-13T04:08:28;35.17;;;21.37;;
62028;SDS011;50157;42.698;23.318;2023-02-13T04:10:56;34.15;;;21.63;;
62028;SDS011;50157;42.698;23.318;2023-02-13T04:13:30;35.85;;;22.33;;
62028;SDS011;50157;42.698;23.318;2023-02-13T04:16:00;35.17;;;21.58;;
62028;SDS011;50157;42.698;23.318;2023-02-13T04:18:33;36.63;;;22.75;;
62028;SDS011;50157;42.698;23.318;2023-02-13T04:21:00;37.90;;;23.63;;
62028;SDS011;50157;42.698;23.318;2023-02-13T04:23:30;34.25;;;21.75;;
62028;SDS011;50157;42.698;23.318;2023-02-13T04:25:56;35.78;;;22.27;;
62028;SDS011;50157;42.698;23.318;2023-02-13T04:28:27;33.83;;;21.52;;
62028;SDS011;50157;42.698;23.318;2023-02-13T04:30:54;35.25;;;21.48;;
62028;SDS011;50157;42.698;23.318;2023-02-13T04:33:21;35.25;;;22.40;;
62028;SDS011;50157;42.698;23.318;2023-02-13T04:35:48;35.53;;;22.25;;
62028;SDS011;50157;42.698;23.318;2023-02-13T04:38:15;33.17;;;20.92;;
62028;SDS011;50157;42.698;23.318;2023-02-13T04:40:43;36.20;;;21.33;;
62028;SDS011;50157;42.698;23.318;2023-02-13T04:43:09;34.00;;;22.05;;
62028;SDS011;50157;42.698;23.318;2023-02-13T04:45:36;35.15;;;21.75;;
62028;SDS011;50157;42.698;23.318;2023-02-13T04:48:03;37.05;;;21.90;;
62028;SDS011;50157;42.698;23.318;2023-02-13T04:50:30;35.28;;;21.60;;
62028;SDS011;50157;42.698;23.318;2023-02-13T04:52:56;32.83;;;20.88;;
62028;SDS011;50157;42.698;23.318;2023-02-13T04:55:24;34.35;;;20.38;;
62028;SDS011;50157;42.698;23.318;2023-02-13T04:57:53;33.38;;;20.77;;
62028;SDS011;50157;42.698;23.318;2023-02-13T05:00:21;35.92;;;22.08;;
62028;SDS011;50157;42.698;23.318;2023-02-13T05:02:49;32.42;;;20.58;;
62028;SDS011;50157;42.698;23.318;2023-02-13T05:05:16;36.33;;;22.77;;
62028;SDS011;50157;42.698;23.318;2023-02-13T05:07:43;37.83;;;22.98;;
62028;SDS011;50157;42.698;23.318;2023-02-13T05:10:11;35.15;;;21.52;;
62028;SDS011;50157;42.698;23.318;2023-02-13T05:12:38;39.25;;;22.65;;
62028;SDS011;50157;42.698;23.318;2023-02-13T05:15:07;39.78;;;22.85;;
62028;SDS011;50157;42.698;23.318;2023-02-13T05:17:34;40.03;;;23.90;;
62028;SDS011;50157;42.698;23.318;2023-02-13T05:20:01;38.67;;;24.30;;
62028;SDS011;50157;42.698;23.318;2023-02-13T05:22:28;41.03;;;25.63;;
62028;SDS011;50157;42.698;23.318;2023-02-13T05:25:12;39.58;;;24.52;;
62028;SDS011;50157;42.698;23.318;2023-02-13T05:27:39;39.38;;;24.98;;
62028;SDS011;50157;42.698;23.318;2023-02-13T05:30:07;38.05;;;24.25;;
62028;SDS011;50157;42.698;23.318;2023-02-13T05:32:34;38.35;;;24.25;;
62028;SDS011;50157;42.698;23.318;2023-02-13T05:35:00;40.75;;;24.48;;
62028;SDS011;50157;42.698;23.318;2023-02-13T05:37:27;37.80;;;24.63;;
62028;SDS011;50157;42.698;23.318;2023-02-13T05:39:54;38.38;;;24.00;;
62028;SDS011;50157;42.698;23.318;2023-02-13T05:42:21;40.25;;;24.70;;
62028;SDS011;50157;42.698;23.318;2023-02-13T05:44:47;37.88;;;24.10;;
62028;SDS011;50157;42.698;23.318;2023-02-13T05:47:16;35.85;;;23.05;;
62028;SDS011;50157;42.698;23.318;2023-02-13T05:49:43;37.70;;;23.38;;
62028;SDS011;50157;42.698;23.318;2023-02-13T05:52:09;37.67;;;22.92;;
62028;SDS011;50157;42.698;23.318;2023-02-13T05:54:36;38.00;;;23.67;;
62028;SDS011;50157;42.698;23.318;2023-02-13T05:57:03;40.40;;;23.48;;
62028;SDS011;50157;42.698;23.318;2023-02-13T05:59:30;35.58;;;22.83;;
62028;SDS011;50157;42.698;23.318;2023-02-13T06:01:57;36.63;;;22.85;;
62028;SDS011;50157;42.698;23.318;2023-02-13T06:04:25;34.80;;;22.33;;
62028;SDS011;50157;42.698;23.318;2023-02-13T06:06:52;32.80;;;21.20;;
62028;SDS011;50157;42.698;23.318;2023-02-13T06:09:18;34.70;;;22.38;;
62028;SDS011;50157;42.698;23.318;2023-02-13T06:11:46;34.50;;;21.25;;
62028;SDS011;50157;42.698;23.318;2023-02-13T06:14:12;36.25;;;22.00;;
62028;SDS011;50157;42.698;23.318;2023-02-13T06:16:39;36.15;;;22.27;;
62028;SDS011;50157;42.698;23.318;2023-02-13T06:19:06;35.67;;;22.80;;
62028;SDS011;50157;42.698;23.318;2023-02-13T06:21:35;34.33;;;21.42;;
62028;SDS011;50157;42.698;23.318;2023-02-13T06:24:03;36.17;;;22.58;;
62028;SDS011;50157;42.698;23.318;2023-02-13T06:26:30;38.90;;;23.50;;
62028;SDS011;50157;42.698;23.318;2023-02-13T06:28:57;38.10;;;24.40;;
62028;SDS011;50157;42.698;23.318;2023-02-13T06:31:24;38.90;;;25.45;;
62028;SDS011;50157;42.698;23.318;2023-02-13T06:33:51;39.85;;;25.60;;
62028;SDS011;50157;42.698;23.318;2023-02-13T06:36:17;37.25;;;25.05;;
62028;SDS011;50157;42.698;23.318;2023-02-13T06:38:45;42.38;;;25.98;;
62028;SDS011;50157;42.698;23.318;2023-02-13T06:41:12;40.13;;;25.60;;
62028;SDS011;50157;42.698;23.318;2023-02-13T06:43:39;39.65;;;23.98;;
62028;SDS011;50157;42.698;23.318;2023-02-13T06:46:06;40.47;;;25.17;;
62028;SDS011;50157;42.698;23.318;2023-02-13T06:48:34;41.28;;;25.20;;
62028;SDS011;50157;42.698;23.318;2023-02-13T06:51:01;38.95;;;25.73;;
62028;SDS011;50157;42.698;23.318;2023-02-13T06:53:27;42.45;;;23.95;;
62028;SDS011;50157;42.698;23.318;2023-02-13T06:55:56;42.17;;;26.10;;
62028;SDS011;50157;42.698;23.318;2023-02-13T06:58:23;39.90;;;25.42;;
62028;SDS011;50157;42.698;23.318;2023-02-13T07:00:51;38.17;;;23.88;;
62028;SDS011;50157;42.698;23.318;2023-02-13T07:03:18;36.78;;;24.23;;
62028;SDS011;50157;42.698;23.318;2023-02-13T07:05:44;37.83;;;23.95;;
62028;SDS011;50157;42.698;23.318;2023-02-13T07:08:11;37.88;;;25.15;;
62028;SDS011;50157;42.698;23.318;2023-02-13T07:10:39;39.00;;;25.13;;
62028;SDS011;50157;42.698;23.318;2023-02-13T07:13:08;36.67;;;24.15;;
62028;SDS011;50157;42.698;23.318;2023-02-13T07:15:35;38.60;;;25.13;;
62028;SDS011;50157;42.698;23.318;2023-02-13T07:18:03;39.78;;;24.08;;
62028;SDS011;50157;42.698;23.318;2023-02-13T07:20:30;39.47;;;25.35;;
62028;SDS011;50157;42.698;23.318;2023-02-13T07:22:58;38.28;;;23.77;;
62028;SDS011;50157;42.698;23.318;2023-02-13T07:25:24;37.95;;;23.85;;
62028;SDS011;50157;42.698;23.318;2023-02-13T07:27:52;36.00;;;22.38;;
62028;SDS011;50157;42.698;23.318;2023-02-13T07:30:20;35.30;;;22.95;;
62028;SDS011;50157;42.698;23.318;2023-02-13T07:32:47;38.25;;;24.20;;
62028;SDS011;50157;42.698;23.318;2023-02-13T07:35:15;38.58;;;24.75;;
62028;SDS011;50157;42.698;23.318;2023-02-13T07:37:42;42.75;;;26.13;;
62028;SDS011;50157;42.698;23.318;2023-02-13T07:40:09;42.00;;;27.90;;
62028;SDS011;50157;42.698;23.318;2023-02-13T07:42:36;41.42;;;27.13;;
62028;SDS011;50157;42.698;23.318;2023-02-13T07:45:03;42.85;;;28.50;;
62028;SDS011;50157;42.698;23.318;2023-02-13T07:47:33;42.13;;;28.45;;
62028;SDS011;50157;42.698;23.318;2023-02-13T07:50:00;44.25;;;27.95;;
62028;SDS011;50157;42.698;23.318;2023-02-13T07:52:27;43.35;;;27.58;;
62028;SDS011;50157;42.698;23.318;2023-02-13T07:54:53;47.35;;;28.58;;
62028;SDS011;50157;42.698;23.318;2023-02-13T07:57:20;41.55;;;25.58;;
62028;SDS011;50157;42.698;23.318;2023-02-13T07:59:47;41.25;;;26.33;;
62028;SDS011;50157;42.698;23.318;2023-02-13T08:02:14;40.20;;;24.85;;
62028;SDS011;50157;42.698;23.318;2023-02-13T08:04:43;36.45;;;23.80;;
62028;SDS011;50157;42.698;23.318;2023-02-13T08:07:11;36.08;;;23.85;;
62028;SDS011;50157;42.698;23.318;2023-02-13T08:09:38;34.35;;;23.67;;
62028;SDS011;50157;42.698;23.318;2023-02-13T08:12:23;35.78;;;22.85;;
62028;SDS011;50157;42.698;23.318;2023-02-13T08:14:49;35.83;;;22.60;;
62028;SDS011;50157;42.698;23.318;2023-02-13T08:17:16;36.83;;;22.58;;
62028;SDS011;50157;42.698;23.318;2023-02-13T08:19:44;33.90;;;22.13;;
62028;SDS011;50157;42.698;23.318;2023-02-13T08:22:11;35.40;;;22.25;;
62028;SDS011;50157;42.698;23.318;2023-02-13T08:24:38;32.08;;;21.30;;
62028;SDS011;50157;42.698;23.318;2023-02-13T08:27:05;34.67;;;21.63;;
62028;SDS011;50157;42.698;23.318;2023-02-13T08:29:31;34.15;;;21.42;;
62028;SDS011;50157;42.698;23.318;2023-02-13T08:31:59;35.58;;;21.85;;
62028;SDS011;50157;42.698;23.318;2023-02-13T08:34:25;32.03;;;20.45;;
62028;SDS011;50157;42.698;23.318;2023-02-13T08:36:54;34.83;;;21.08;;
62028;SDS011;50157;42.698;23.318;2023-02-13T08:39:20;33.53;;;21.02;;
62028;SDS011;50157;42.698;23.318;2023-02-13T08:41:47;33.67;;;21.00;;
62028;SDS011;50157;42.698;23.318;2023-02-13T08:44:14;34.33;;;21.33;;
62028;SDS011;50157;42.698;23.318;2023-02-13T08:46:41;34.03;;;21.55;;
62028;SDS011;50157;42.698;23.318;2023-02-13T08:49:07;32.05;;;20.98;;
62028;SDS011;50157;42.698;23.318;2023-02-13T08:51:34;33.95;;;21.58;;
62028;SDS011;50157;42.698;23.318;2023-02-13T08:54:02;35.20;;;21.42;;
62028;SDS011;50157;42.698;23.318;2023-02-13T08:56:29;34.90;;;21.88;;
62028;SDS011;50157;42.698;23.318;2023-02-13T08:58:56;35.95;;;21.80;;
62028;SDS011;50157;42.698;23.318;2023-02-13T09:01:23;31.88;;;20.30;;
62028;SDS011;50157;42.698;23.318;2023-02-13T09:03:50;35.42;;;21.75;;
62028;SDS011;50157;42.698;23.318;2023-02-13T09:06:17;39.00;;;23.75;;
62028;SDS011;50157;42.698;23.318;2023-02-13T09:08:43;34.72;;;22.27;;
62028;SDS011;50157;42.698;23.318;2023-02-13T09:11:11;36.30;;;22.70;;
62028;SDS011;50157;42.698;23.318;2023-02-13T09:13:38;37.05;;;23.08;;
62028;SDS011;50157;42.698;23.318;2023-02-13T09:16:05;34.95;;;22.67;;
62028;SDS011;50157;42.698;23.318;2023-02-13T09:18:34;35.60;;;23.20;;
62028;SDS011;50157;42.698;23.318;2023-02-13T09:21:02;36.72;;;23.10;;
62028;SDS011;50157;42.698;23.318;2023-02-13T09:23:30;37.03;;;23.15;;
62028;SDS011;50157;42.698;23.318;2023-02-13T09:25:58;33.92;;;21.73;;
62028;SDS011;50157;42.698;23.318;2023-02-13T09:28:27;38.25;;;23.98;;
62028;SDS011;50157;42.698;23.318;2023-02-13T09:30:54;36.03;;;22.40;;
62028;SDS011;50157;42.698;23.318;2023-02-13T09:33:21;35.30;;;22.88;;
62028;SDS011;50157;42.698;23.318;2023-02-13T09:35:48;36.53;;;22.13;;
62028;SDS011;50157;42.698;23.318;2023-02-13T09:38:15;35.50;;;21.88;;
62028;SDS011;50157;42.698;23.318;2023-02-13T09:40:42;35.50;;;21.45;;
62028;SDS011;50157;42.698;23.318;2023-02-13T09:43:14;34.10;;;22.58;;
62028;SDS011;50157;42.698;23.318;2023-02-13T09:45:49;34.05;;;21.67;;
62028;SDS011;50157;42.698;23.318;2023-02-13T09:48:21;36.15;;;23.25;;
62028;SDS011;50157;42.698;23.318;2023-02-13T09:50:53;35.58;;;23.50;;
62028;SDS011;50157;42.698;23.318;2023-02-13T09:53:23;33.70;;;22.27;;
62028;SDS011;50157;42.698;23.318;2023-02-13T09:55:57;37.47;;;24.05;;
62028;SDS011;50157;42.698;23.318;2023-02-13T10:01:25;36.25;;;22.70;;
62028;SDS011;50157;42.698;23.318;2023-02-13T10:04:04;37.30;;;23.13;;
62028;SDS011;50157;42.698;23.318;2023-02-13T10:06:42;35.05;;;22.08;;
62028;SDS011;50157;42.698;23.318;2023-02-13T10:09:16;35.33;;;22.63;;
62028;SDS011;50157;42.698;23.318;2023-02-13T10:12:00;36.30;;;23.05;;
62028;SDS011;50157;42.698;23.318;2023-02-13T10:14:43;35.45;;;22.25;;
62028;SDS011;50157;42.698;23.318;2023-02-13T10:17:19;35.10;;;22.92;;
62028;SDS011;50157;42.698;23.318;2023-02-13T10:19:49;35.00;;;21.73;;
62028;SDS011;50157;42.698;23.318;2023-02-13T10:22:22;36.22;;;22.85;;
62028;SDS011;50157;42.698;23.318;2023-02-13T10:24:53;36.35;;;22.30;;
62028;SDS011;50157;42.698;23.318;2023-02-13T10:27:26;33.45;;;20.80;;
62028;SDS011;50157;42.698;23.318;2023-02-13T10:29:57;34.35;;;21.17;;
62028;SDS011;50157;42.698;23.318;2023-02-13T10:32:35;31.73;;;20.60;;
62028;SDS011;50157;42.698;23.318;2023-02-13T10:35:14;32.17;;;20.00;;
62028;SDS011;50157;42.698;23.318;2023-02-13T10:37:44;32.63;;;20.20;;
62028;SDS011;50157;42.698;23.318;2023-02-13T10:40:15;34.78;;;20.58;;
62028;SDS011;50157;42.698;23.318;2023-02-13T10:42:44;32.70;;;20.55;;
62028;SDS011;50157;42.698;23.318;2023-02-13T10:45:19;34.67;;;20.88;;
62028;SDS011;50157;42.698;23.318;2023-02-13T10:48:00;35.25;;;21.00;;
62028;SDS011;50157;42.698;23.318;2023-02-13T10:53:13;35.20;;;21.38;;
62028;SDS011;50157;42.698;23.318;2023-02-13T10:55:53;32.83;;;21.42;;
62028;SDS011;50157;42.698;23.318;2023-02-13T10:58:29;37.28;;;21.45;;
62028;SDS011;50157;42.698;23.318;2023-02-13T11:01:08;32.40;;;21.23;;
62028;SDS011;50157;42.698;23.318;2023-02-13T11:03:44;32.63;;;20.80;;
62028;SDS011;50157;42.698;23.318;2023-02-13T11:06:14;33.90;;;20.30;;
62028;SDS011;50157;42.698;23.318;2023-02-13T11:08:45;32.70;;;19.98;;
62028;SDS011;50157;42.698;23.318;2023-02-13T11:11:29;32.30;;;20.38;;
62028;SDS011;50157;42.698;23.318;2023-02-13T11:14:07;31.63;;;20.10;;
62028;SDS011;50157;42.698;23.318;2023-02-13T11:16:39;32.08;;;20.42;;
62028;SDS011;50157;42.698;23.318;2023-02-13T11:19:16;31.98;;;19.48;;
62028;SDS011;50157;42.698;23.318;2023-02-13T11:21:45;30.20;;;19.35;;
62028;SDS011;50157;42.698;23.318;2023-02-13T11:24:17;31.08;;;18.42;;
62028;SDS011;50157;42.698;23.318;2023-02-13T11:26:49;29.92;;;18.63;;
62028;SDS011;50157;42.698;23.318;2023-02-13T11:29:19;28.48;;;17.88;;
62028;SDS011;50157;42.698;23.318;2023-02-13T11:31:59;28.23;;;17.95;;
62028;SDS011;50157;42.698;23.318;2023-02-13T11:34:38;26.42;;;17.67;;
62028;SDS011;50157;42.698;23.318;2023-02-13T11:37:14;25.73;;;16.42;;
62028;SDS011;50157;42.698;23.318;2023-02-13T11:39:43;24.33;;;15.63;;
62028;SDS011;50157;42.698;23.318;2023-02-13T11:42:11;26.85;;;16.60;;
62028;SDS011;50157;42.698;23.318;2023-02-13T11:44:40;24.88;;;15.43;;
62028;SDS011;50157;42.698;23.318;2023-02-13T11:47:09;24.67;;;15.65;;
62028;SDS011;50157;42.698;23.318;2023-02-13T11:49:43;25.52;;;15.52;;
62028;SDS011;50157;42.698;23.318;2023-02-13T11:52:21;26.25;;;15.60;;
62028;SDS011;50157;42.698;23.318;2023-02-13T11:54:54;24.05;;;14.95;;
62028;SDS011;50157;42.698;23.318;2023-02-13T11:57:23;23.60;;;14.65;;
62028;SDS011;50157;42.698;23.318;2023-02-13T11:59:53;23.80;;;14.13;;
62028;SDS011;50157;42.698;23.318;2023-02-13T12:02:21;25.35;;;15.20;;
62028;SDS011;50157;42.698;23.318;2023-02-13T12:04:51;24.05;;;14.07;;
62028;SDS011;50157;42.698;23.318;2023-02-13T12:07:19;24.50;;;14.75;;
62028;SDS011;50157;42.698;23.318;2023-02-13T12:09:49;22.58;;;13.30;;
62028;SDS011;50157;42.698;23.318;2023-02-13T12:12:22;24.00;;;13.38;;
62028;SDS011;50157;42.698;23.318;2023-02-13T12:14:54;22.20;;;13.38;;
62028;SDS011;50157;42.698;23.318;2023-02-13T12:17:22;22.20;;;13.35;;
62028;SDS011;50157;42.698;23.318;2023-02-13T12:19:54;19.83;;;12.02;;
62028;SDS011;50157;42.698;23.318;2023-02-13T12:22:26;20.55;;;12.18;;
62028;SDS011;50157;42.698;23.318;2023-02-13T12:25:02;20.52;;;13.43;;
62028;SDS011;50157;42.698;23.318;2023-02-13T12:27:44;20.00;;;13.05;;
62028;SDS011;50157;42.698;23.318;2023-02-13T12:30:26;19.30;;;12.13;;
62028;SDS011;50157;42.698;23.318;2023-02-13T12:33:10;21.55;;;12.95;;
62028;SDS011;50157;42.698;23.318;2023-02-13T12:35:54;19.02;;;11.93;;
62028;SDS011;50157;42.698;23.318;2023-02-13T12:38:29;18.05;;;11.60;;
62028;SDS011;50157;42.698;23.318;2023-02-13T12:41:13;19.98;;;11.80;;
62028;SDS011;50157;42.698;23.318;2023-02-13T12:43:57;18.77;;;11.70;;
62028;SDS011;50157;42.698;23.318;2023-02-13T12:47:00;19.38;;;11.30;;
62028;SDS011;50157;42.698;23.318;2023-02-13T12:52:46;17.83;;;10.77;;
62028;SDS011;50157;42.698;23.318;2023-02-13T12:58:29;16.95;;;10.90;;
62028;SDS011;50157;42.698;23.318;2023-02-13T13:01:27;18.73;;;10.98;;
62028;SDS011;50157;42.698;23.318;2023-02-13T13:04:11;16.92;;;10.40;;
62028;SDS011;50157;42.698;23.318;2023-02-13T13:06:49;17.73;;;11.00;;
62028;SDS011;50157;42.698;23.318;2023-02-13T13:09:49;17.63;;;10.23;;
62028;SDS011;50157;42.698;23.318;2023-02-13T13:12:37;18.48;;;10.55;;
62028;SDS011;50157;42.698;23.318;2023-02-13T13:15:12;18.10;;;10.75;;
62028;SDS011;50157;42.698;23.318;2023-02-13T13:17:56;16.63;;;9.95;;
62028;SDS011;50157;42.698;23.318;2023-02-13T13:20:38;16.15;;;10.13;;
62028;SDS011;50157;42.698;23.318;2023-02-13T13:23:24;16.48;;;10.20;;
62028;SDS011;50157;42.698;23.318;2023-02-13T13:26:01;16.55;;;10.63;;
62028;SDS011;50157;42.698;23.318;2023-02-13T13:28:33;16.85;;;9.65;;
62028;SDS011;50157;42.698;23.318;2023-02-13T13:31:03;16.83;;;9.63;;
62028;SDS011;50157;42.698;23.318;2023-02-13T13:33:31;17.85;;;10.48;;
62028;SDS011;50157;42.698;23.318;2023-02-13T13:36:01;18.25;;;10.55;;
62028;SDS011;50157;42.698;23.318;2023-02-13T13:41:10;17.70;;;9.63;;
62028;SDS011;50157;42.698;23.318;2023-02-13T13:43:41;17.80;;;10.10;;
62028;SDS011;50157;42.698;23.318;2023-02-13T13:46:26;19.80;;;9.98;;
62028;SDS011;50157;42.698;23.318;2023-02-13T13:49:05;16.73;;;10.05;;
62028;SDS011;50157;42.698;23.318;2023-02-13T13:51:39;16.15;;;9.63;;
62028;SDS011;50157;42.698;23.318;2023-02-13T13:54:21;17.15;;;10.32;;
62028;SDS011;50157;42.698;23.318;2023-02-13T13:59:56;18.17;;;10.40;;
62028;SDS011;50157;42.698;23.318;2023-02-13T14:02:41;16.20;;;9.73;;
62028;SDS011;50157;42.698;23.318;2023-02-13T14:05:23;15.73;;;9.57;;
62028;SDS011;50157;42.698;23.318;2023-02-13T14:07:54;18.52;;;10.48;;
62028;SDS011;50157;42.698;23.318;2023-02-13T14:13:29;17.02;;;10.07;;
62028;SDS011;50157;42.698;23.318;2023-02-13T14:15:58;16.75;;;9.90;;
62028;SDS011;50157;42.698;23.318;2023-02-13T14:18:25;17.05;;;9.68;;
62028;SDS011;50157;42.698;23.318;2023-02-13T14:20:54;15.23;;;9.82;;
62028;SDS011;50157;42.698;23.318;2023-02-13T14:23:36;16.15;;;9.82;;
62028;SDS011;50157;42.698;23.318;2023-02-13T14:26:33;17.67;;;11.25;;
62028;SDS011;50157;42.698;23.318;2023-02-13T14:32:13;19.45;;;11.25;;
62028;SDS011;50157;42.698;23.318;2023-02-13T14:34:48;18.17;;;10.68;;
62028;SDS011;50157;42.698;23.318;2023-02-13T14:37:20;17.73;;;10.23;;
62028;SDS011;50157;42.698;23.318;2023-02-13T14:40:10;17.92;;;11.35;;
62028;SDS011;50157;42.698;23.318;2023-02-13T14:43:05;15.75;;;10.43;;
62028;SDS011;50157;42.698;23.318;2023-02-13T14:45:47;16.33;;;10.30;;
62028;SDS011;50157;42.698;23.318;2023-02-13T14:48:18;18.85;;;10.48;;
62028;SDS011;50157;42.698;23.318;2023-02-13T14:50:48;16.63;;;9.98;;
62028;SDS011;50157;42.698;23.318;2023-02-13T14:53:19;17.75;;;9.85;;
62028;SDS011;50157;42.698;23.318;2023-02-13T14:55:52;17.83;;;10.30;;
62028;SDS011;50157;42.698;23.318;2023-02-13T14:58:24;17.90;;;10.70;;
62028;SDS011;50157;42.698;23.318;2023-02-13T15:00:56;16.58;;;10.43;;
62028;SDS011;50157;42.698;23.318;2023-02-13T15:03:28;17.58;;;10.57;;